sensor_id;sensor_type;location;lat;lon;timestamp;P1;durP1;ratioP1;P2;durP2;ratioP2
25125;SDS011;13106;50.808;5.670;2024-01-27T00:01:46;15.40;;;6.40;;
25125;SDS011;13106;50.808;5.670;2024-01-27T00:04:12;17.27;;;6.82;;
25125;SDS011;13106;50.808;5.670;2024-01-27T00:06:38;21.67;;;5.53;;
25125;SDS011;13106;50.808;5.670;2024-01-27T00:09:04;18.98;;;5.32;;
25125;SDS011;13106;50.808;5.670;2024-01-27T00:11:31;14.20;;;5.47;;
25125;SDS011;13106;50.808;5.670;2024-01-27T00:13:57;17.73;;;5.28;;
25125;SDS011;13106;50.808;5.670;2024-01-27T00:16:28;17.70;;;5.10;;
25125;SDS011;13106;50.808;5.670;2024-01-27T00:18:54;17.27;;;4.55;;
25125;SDS011;13106;50.808;5.670;2024-01-27T00:21:20;20.83;;;5.55;;
25125;SDS011;13106;50.808;5.670;2024-01-27T00:23:46;16.20;;;5.00;;
25125;SDS011;13106;50.808;5.670;2024-01-27T00:26:12;15.60;;;5.25;;
25125;SDS011;13106;50.808;5.670;2024-01-27T00:28:38;15.85;;;4.68;;
25125;SDS011;13106;50.808;5.670;2024-01-27T00:31:04;18.83;;;4.80;;
25125;SDS011;13106;50.808;5.670;2024-01-27T00:33:30;15.52;;;5.28;;
25125;SDS011;13106;50.808;5.670;2024-01-27T00:35:56;15.02;;;5.30;;
25125;SDS011;13106;50.808;5.670;2024-01-27T00:38:22;15.48;;;4.75;;
25125;SDS011;13106;50.808;5.670;2024-01-27T00:40:48;19.00;;;5.05;;
25125;SDS011;13106;50.808;5.670;2024-01-27T00:43:14;16.87;;;5.63;;
25125;SDS011;13106;50.808;5.670;2024-01-27T00:45:40;18.80;;;5.20;;
25125;SDS011;13106;50.808;5.670;2024-01-27T00:48:06;15.98;;;4.60;;
25125;SDS011;13106;50.808;5.670;2024-01-27T00:50:32;13.23;;;5.22;;
25125;SDS011;13106;50.808;5.670;2024-01-27T00:52:58;14.02;;;5.22;;
25125;SDS011;13106;50.808;5.670;2024-01-27T00:55:24;13.83;;;4.73;;
25125;SDS011;13106;50.808;5.670;2024-01-27T00:57:50;17.40;;;5.60;;
25125;SDS011;13106;50.808;5.670;2024-01-27T01:00:18;13.48;;;4.35;;
25125;SDS011;13106;50.808;5.670;2024-01-27T01:02:44;13.30;;;4.10;;
25125;SDS011;13106;50.808;5.670;2024-01-27T01:05:10;13.07;;;4.30;;
25125;SDS011;13106;50.808;5.670;2024-01-27T01:07:36;17.38;;;4.50;;
25125;SDS011;13106;50.808;5.670;2024-01-27T01:10:02;12.88;;;4.65;;
25125;SDS011;13106;50.808;5.670;2024-01-27T01:12:29;16.63;;;5.43;;
25125;SDS011;13106;50.808;5.670;2024-01-27T01:14:55;17.48;;;5.20;;
25125;SDS011;13106;50.808;5.670;2024-01-27T01:17:22;17.67;;;5.70;;
25125;SDS011;13106;50.808;5.670;2024-01-27T01:19:48;16.85;;;5.70;;
25125;SDS011;13106;50.808;5.670;2024-01-27T01:22:14;15.65;;;5.22;;
25125;SDS011;13106;50.808;5.670;2024-01-27T01:24:40;14.55;;;5.53;;
25125;SDS011;13106;50.808;5.670;2024-01-27T01:27:06;15.50;;;4.75;;
25125;SDS011;13106;50.808;5.670;2024-01-27T01:29:32;18.33;;;4.90;;
25125;SDS011;13106;50.808;5.670;2024-01-27T01:31:58;16.45;;;4.90;;
25125;SDS011;13106;50.808;5.670;2024-01-27T01:34:26;14.20;;;4.73;;
25125;SDS011;13106;50.808;5.670;2024-01-27T01:36:52;13.80;;;5.30;;
25125;SDS011;13106;50.808;5.670;2024-01-27T01:39:19;17.70;;;5.25;;
25125;SDS011;13106;50.808;5.670;2024-01-27T01:41:45;18.23;;;5.80;;
25125;SDS011;13106;50.808;5.670;2024-01-27T01:44:11;15.23;;;4.67;;
25125;SDS011;13106;50.808;5.670;2024-01-27T01:46:37;14.55;;;5.35;;
25125;SDS011;13106;50.808;5.670;2024-01-27T01:49:03;15.70;;;5.55;;
25125;SDS011;13106;50.808;5.670;2024-01-27T01:51:29;14.88;;;5.55;;
25125;SDS011;13106;50.808;5.670;2024-01-27T01:53:57;18.50;;;5.47;;
25125;SDS011;13106;50.808;5.670;2024-01-27T01:56:23;12.77;;;4.57;;
25125;SDS011;13106;50.808;5.670;2024-01-27T01:58:50;18.42;;;4.75;;
25125;SDS011;13106;50.808;5.670;2024-01-27T02:01:18;12.82;;;5.82;;
25125;SDS011;13106;50.808;5.670;2024-01-27T02:03:56;15.00;;;4.80;;
25125;SDS011;13106;50.808;5.670;2024-01-27T02:06:22;17.45;;;5.00;;
25125;SDS011;13106;50.808;5.670;2024-01-27T02:08:48;18.02;;;5.15;;
25125;SDS011;13106;50.808;5.670;2024-01-27T02:11:14;18.63;;;5.73;;
25125;SDS011;13106;50.808;5.670;2024-01-27T02:13:40;13.93;;;5.13;;
25125;SDS011;13106;50.808;5.670;2024-01-27T02:16:07;16.48;;;5.22;;
25125;SDS011;13106;50.808;5.670;2024-01-27T02:18:33;16.98;;;4.95;;
25125;SDS011;13106;50.808;5.670;2024-01-27T02:20:59;15.63;;;5.15;;
25125;SDS011;13106;50.808;5.670;2024-01-27T02:23:25;17.67;;;7.03;;
25125;SDS011;13106;50.808;5.670;2024-01-27T02:25:51;15.43;;;6.10;;
25125;SDS011;13106;50.808;5.670;2024-01-27T02:28:17;15.52;;;6.60;;
25125;SDS011;13106;50.808;5.670;2024-01-27T02:30:43;18.25;;;6.65;;
25125;SDS011;13106;50.808;5.670;2024-01-27T02:33:09;15.32;;;5.70;;
25125;SDS011;13106;50.808;5.670;2024-01-27T02:35:35;14.45;;;6.00;;
25125;SDS011;13106;50.808;5.670;2024-01-27T02:38:01;23.17;;;6.78;;
25125;SDS011;13106;50.808;5.670;2024-01-27T02:40:27;17.25;;;6.53;;
25125;SDS011;13106;50.808;5.670;2024-01-27T02:42:53;23.02;;;7.05;;
25125;SDS011;13106;50.808;5.670;2024-01-27T02:45:19;17.13;;;6.35;;
25125;SDS011;13106;50.808;5.670;2024-01-27T02:47:45;20.02;;;7.03;;
25125;SDS011;13106;50.808;5.670;2024-01-27T02:50:11;18.77;;;6.97;;
25125;SDS011;13106;50.808;5.670;2024-01-27T02:52:37;18.70;;;7.47;;
25125;SDS011;13106;50.808;5.670;2024-01-27T02:55:04;20.90;;;6.60;;
25125;SDS011;13106;50.808;5.670;2024-01-27T02:57:30;22.83;;;7.43;;
25125;SDS011;13106;50.808;5.670;2024-01-27T02:59:56;21.85;;;7.38;;
25125;SDS011;13106;50.808;5.670;2024-01-27T03:02:22;18.35;;;7.47;;
25125;SDS011;13106;50.808;5.670;2024-01-27T03:04:48;19.60;;;7.40;;
25125;SDS011;13106;50.808;5.670;2024-01-27T03:07:14;25.38;;;8.48;;
25125;SDS011;13106;50.808;5.670;2024-01-27T03:09:40;19.17;;;8.80;;
25125;SDS011;13106;50.808;5.670;2024-01-27T03:12:06;21.55;;;7.07;;
25125;SDS011;13106;50.808;5.670;2024-01-27T03:14:32;19.45;;;6.57;;
25125;SDS011;13106;50.808;5.670;2024-01-27T03:16:58;22.60;;;7.30;;
25125;SDS011;13106;50.808;5.670;2024-01-27T03:19:29;18.67;;;7.65;;
25125;SDS011;13106;50.808;5.670;2024-01-27T03:21:55;17.98;;;6.93;;
25125;SDS011;13106;50.808;5.670;2024-01-27T03:24:21;20.02;;;9.07;;
25125;SDS011;13106;50.808;5.670;2024-01-27T03:26:47;16.00;;;6.70;;
25125;SDS011;13106;50.808;5.670;2024-01-27T03:29:13;20.23;;;7.30;;
25125;SDS011;13106;50.808;5.670;2024-01-27T03:31:40;22.23;;;7.80;;
25125;SDS011;13106;50.808;5.670;2024-01-27T03:34:06;14.55;;;6.05;;
25125;SDS011;13106;50.808;5.670;2024-01-27T03:36:32;15.77;;;6.18;;
25125;SDS011;13106;50.808;5.670;2024-01-27T03:38:58;17.13;;;6.38;;
25125;SDS011;13106;50.808;5.670;2024-01-27T03:41:24;18.73;;;5.93;;
25125;SDS011;13106;50.808;5.670;2024-01-27T03:43:50;17.10;;;6.40;;
25125;SDS011;13106;50.808;5.670;2024-01-27T03:46:16;22.20;;;6.40;;
25125;SDS011;13106;50.808;5.670;2024-01-27T03:48:42;18.20;;;6.10;;
25125;SDS011;13106;50.808;5.670;2024-01-27T03:51:08;15.73;;;6.35;;
25125;SDS011;13106;50.808;5.670;2024-01-27T03:53:34;20.58;;;6.32;;
25125;SDS011;13106;50.808;5.670;2024-01-27T03:56:00;19.35;;;6.20;;
25125;SDS011;13106;50.808;5.670;2024-01-27T03:58:29;16.20;;;7.03;;
25125;SDS011;13106;50.808;5.670;2024-01-27T04:00:56;20.77;;;6.88;;
25125;SDS011;13106;50.808;5.670;2024-01-27T04:03:22;18.65;;;5.90;;
25125;SDS011;13106;50.808;5.670;2024-01-27T04:05:48;18.17;;;5.88;;
25125;SDS011;13106;50.808;5.670;2024-01-27T04:08:14;13.68;;;5.82;;
25125;SDS011;13106;50.808;5.670;2024-01-27T04:10:41;18.58;;;6.15;;
25125;SDS011;13106;50.808;5.670;2024-01-27T04:13:07;15.13;;;5.75;;
25125;SDS011;13106;50.808;5.670;2024-01-27T04:15:33;15.20;;;5.55;;
25125;SDS011;13106;50.808;5.670;2024-01-27T04:18:04;16.90;;;5.82;;
25125;SDS011;13106;50.808;5.670;2024-01-27T04:20:30;17.23;;;6.30;;
25125;SDS011;13106;50.808;5.670;2024-01-27T04:22:56;14.65;;;5.55;;
25125;SDS011;13106;50.808;5.670;2024-01-27T04:25:22;19.92;;;6.15;;
25125;SDS011;13106;50.808;5.670;2024-01-27T04:27:48;15.82;;;5.68;;
25125;SDS011;13106;50.808;5.670;2024-01-27T04:30:14;19.60;;;6.05;;
25125;SDS011;13106;50.808;5.670;2024-01-27T04:32:40;19.45;;;6.00;;
25125;SDS011;13106;50.808;5.670;2024-01-27T04:35:10;16.43;;;6.73;;
25125;SDS011;13106;50.808;5.670;2024-01-27T04:37:36;16.80;;;6.70;;
25125;SDS011;13106;50.808;5.670;2024-01-27T04:40:05;17.08;;;6.55;;
25125;SDS011;13106;50.808;5.670;2024-01-27T04:42:34;17.35;;;7.28;;
25125;SDS011;13106;50.808;5.670;2024-01-27T04:45:03;21.33;;;6.45;;
25125;SDS011;13106;50.808;5.670;2024-01-27T04:47:29;16.20;;;6.18;;
25125;SDS011;13106;50.808;5.670;2024-01-27T04:49:55;15.90;;;6.00;;
25125;SDS011;13106;50.808;5.670;2024-01-27T04:52:24;15.30;;;6.23;;
25125;SDS011;13106;50.808;5.670;2024-01-27T04:54:51;16.90;;;5.68;;
25125;SDS011;13106;50.808;5.670;2024-01-27T04:57:17;19.20;;;5.80;;
25125;SDS011;13106;50.808;5.670;2024-01-27T04:59:43;15.80;;;5.70;;
25125;SDS011;13106;50.808;5.670;2024-01-27T05:02:10;14.98;;;5.25;;
25125;SDS011;13106;50.808;5.670;2024-01-27T05:04:37;16.33;;;5.45;;
25125;SDS011;13106;50.808;5.670;2024-01-27T05:07:03;20.25;;;5.53;;
25125;SDS011;13106;50.808;5.670;2024-01-27T05:09:29;17.30;;;5.35;;
25125;SDS011;13106;50.808;5.670;2024-01-27T05:11:55;13.05;;;5.00;;
25125;SDS011;13106;50.808;5.670;2024-01-27T05:14:21;14.67;;;5.27;;
25125;SDS011;13106;50.808;5.670;2024-01-27T05:16:47;15.65;;;5.13;;
25125;SDS011;13106;50.808;5.670;2024-01-27T05:19:13;17.77;;;5.18;;
25125;SDS011;13106;50.808;5.670;2024-01-27T05:21:42;12.65;;;5.43;;
25125;SDS011;13106;50.808;5.670;2024-01-27T05:24:08;15.17;;;5.47;;
25125;SDS011;13106;50.808;5.670;2024-01-27T05:26:34;19.30;;;5.68;;
25125;SDS011;13106;50.808;5.670;2024-01-27T05:29:03;20.13;;;7.97;;
25125;SDS011;13106;50.808;5.670;2024-01-27T05:31:29;16.13;;;5.90;;
25125;SDS011;13106;50.808;5.670;2024-01-27T05:33:55;15.75;;;5.38;;
25125;SDS011;13106;50.808;5.670;2024-01-27T05:36:21;15.52;;;5.85;;
25125;SDS011;13106;50.808;5.670;2024-01-27T05:38:47;16.95;;;6.38;;
25125;SDS011;13106;50.808;5.670;2024-01-27T05:41:14;17.80;;;6.70;;
25125;SDS011;13106;50.808;5.670;2024-01-27T05:43:40;17.83;;;7.03;;
25125;SDS011;13106;50.808;5.670;2024-01-27T05:46:06;18.05;;;6.65;;
25125;SDS011;13106;50.808;5.670;2024-01-27T05:48:34;15.90;;;8.37;;
25125;SDS011;13106;50.808;5.670;2024-01-27T05:51:01;14.98;;;5.05;;
25125;SDS011;13106;50.808;5.670;2024-01-27T05:53:27;13.80;;;4.88;;
25125;SDS011;13106;50.808;5.670;2024-01-27T05:55:53;15.87;;;5.00;;
25125;SDS011;13106;50.808;5.670;2024-01-27T05:58:19;19.73;;;5.60;;
25125;SDS011;13106;50.808;5.670;2024-01-27T06:00:48;18.15;;;5.57;;
25125;SDS011;13106;50.808;5.670;2024-01-27T06:03:14;16.67;;;5.47;;
25125;SDS011;13106;50.808;5.670;2024-01-27T06:05:41;16.77;;;5.28;;
25125;SDS011;13106;50.808;5.670;2024-01-27T06:08:08;16.27;;;4.88;;
25125;SDS011;13106;50.808;5.670;2024-01-27T06:10:34;14.73;;;5.00;;
25125;SDS011;13106;50.808;5.670;2024-01-27T06:13:03;17.42;;;5.10;;
25125;SDS011;13106;50.808;5.670;2024-01-27T06:15:29;13.35;;;5.68;;
25125;SDS011;13106;50.808;5.670;2024-01-27T06:17:55;15.48;;;5.30;;
25125;SDS011;13106;50.808;5.670;2024-01-27T06:20:22;16.50;;;6.10;;
25125;SDS011;13106;50.808;5.670;2024-01-27T06:22:48;19.25;;;5.97;;
25125;SDS011;13106;50.808;5.670;2024-01-27T06:25:14;16.05;;;5.15;;
25125;SDS011;13106;50.808;5.670;2024-01-27T06:27:41;15.75;;;5.40;;
25125;SDS011;13106;50.808;5.670;2024-01-27T06:30:08;15.73;;;5.30;;
25125;SDS011;13106;50.808;5.670;2024-01-27T06:32:34;17.42;;;5.03;;
25125;SDS011;13106;50.808;5.670;2024-01-27T06:35:01;16.53;;;5.47;;
25125;SDS011;13106;50.808;5.670;2024-01-27T06:37:28;16.02;;;5.00;;
25125;SDS011;13106;50.808;5.670;2024-01-27T06:39:54;14.73;;;5.00;;
25125;SDS011;13106;50.808;5.670;2024-01-27T06:42:20;17.25;;;5.75;;
25125;SDS011;13106;50.808;5.670;2024-01-27T06:44:46;13.70;;;4.72;;
25125;SDS011;13106;50.808;5.670;2024-01-27T06:47:12;16.17;;;5.10;;
25125;SDS011;13106;50.808;5.670;2024-01-27T06:49:38;14.93;;;5.03;;
25125;SDS011;13106;50.808;5.670;2024-01-27T06:52:04;16.38;;;4.90;;
25125;SDS011;13106;50.808;5.670;2024-01-27T06:54:30;17.50;;;5.15;;
25125;SDS011;13106;50.808;5.670;2024-01-27T06:56:56;16.75;;;5.20;;
25125;SDS011;13106;50.808;5.670;2024-01-27T06:59:22;18.17;;;4.97;;
25125;SDS011;13106;50.808;5.670;2024-01-27T07:01:48;12.93;;;4.05;;
25125;SDS011;13106;50.808;5.670;2024-01-27T07:04:14;17.58;;;4.90;;
25125;SDS011;13106;50.808;5.670;2024-01-27T07:06:40;15.63;;;5.03;;
25125;SDS011;13106;50.808;5.670;2024-01-27T07:09:06;17.83;;;4.90;;
25125;SDS011;13106;50.808;5.670;2024-01-27T07:11:34;16.65;;;4.43;;
25125;SDS011;13106;50.808;5.670;2024-01-27T07:14:00;12.32;;;4.95;;
25125;SDS011;13106;50.808;5.670;2024-01-27T07:16:26;17.40;;;4.70;;
25125;SDS011;13106;50.808;5.670;2024-01-27T07:18:52;13.00;;;4.50;;
25125;SDS011;13106;50.808;5.670;2024-01-27T07:21:18;14.50;;;4.97;;
25125;SDS011;13106;50.808;5.670;2024-01-27T07:23:44;14.73;;;4.45;;
25125;SDS011;13106;50.808;5.670;2024-01-27T07:26:10;14.77;;;4.40;;
25125;SDS011;13106;50.808;5.670;2024-01-27T07:28:37;15.07;;;4.93;;
25125;SDS011;13106;50.808;5.670;2024-01-27T07:31:03;14.02;;;4.78;;
25125;SDS011;13106;50.808;5.670;2024-01-27T07:33:29;17.67;;;4.47;;
25125;SDS011;13106;50.808;5.670;2024-01-27T07:35:55;17.07;;;4.50;;
25125;SDS011;13106;50.808;5.670;2024-01-27T07:38:22;15.23;;;4.88;;
25125;SDS011;13106;50.808;5.670;2024-01-27T07:40:48;16.90;;;5.80;;
25125;SDS011;13106;50.808;5.670;2024-01-27T07:43:14;14.23;;;4.97;;
25125;SDS011;13106;50.808;5.670;2024-01-27T07:45:40;14.70;;;5.25;;
25125;SDS011;13106;50.808;5.670;2024-01-27T07:48:06;15.25;;;5.07;;
25125;SDS011;13106;50.808;5.670;2024-01-27T07:50:32;17.00;;;4.87;;
25125;SDS011;13106;50.808;5.670;2024-01-27T07:52:58;11.93;;;5.32;;
25125;SDS011;13106;50.808;5.670;2024-01-27T07:55:25;18.67;;;6.00;;
25125;SDS011;13106;50.808;5.670;2024-01-27T07:57:51;17.58;;;6.30;;
25125;SDS011;13106;50.808;5.670;2024-01-27T08:00:17;14.48;;;5.43;;
25125;SDS011;13106;50.808;5.670;2024-01-27T08:02:43;15.35;;;8.70;;
25125;SDS011;13106;50.808;5.670;2024-01-27T08:05:09;13.57;;;7.18;;
25125;SDS011;13106;50.808;5.670;2024-01-27T08:07:35;18.30;;;6.10;;
25125;SDS011;13106;50.808;5.670;2024-01-27T08:10:01;19.40;;;8.02;;
25125;SDS011;13106;50.808;5.670;2024-01-27T08:12:29;24.55;;;7.90;;
25125;SDS011;13106;50.808;5.670;2024-01-27T08:14:55;18.95;;;6.55;;
25125;SDS011;13106;50.808;5.670;2024-01-27T08:17:21;18.83;;;6.00;;
25125;SDS011;13106;50.808;5.670;2024-01-27T08:19:47;14.45;;;4.90;;
25125;SDS011;13106;50.808;5.670;2024-01-27T08:22:13;17.98;;;4.60;;
25125;SDS011;13106;50.808;5.670;2024-01-27T08:24:40;16.30;;;4.80;;
25125;SDS011;13106;50.808;5.670;2024-01-27T08:27:06;15.07;;;4.43;;
25125;SDS011;13106;50.808;5.670;2024-01-27T08:29:32;13.90;;;4.10;;
25125;SDS011;13106;50.808;5.670;2024-01-27T08:31:58;15.53;;;4.83;;
25125;SDS011;13106;50.808;5.670;2024-01-27T08:34:24;15.95;;;4.68;;
25125;SDS011;13106;50.808;5.670;2024-01-27T08:36:50;16.38;;;4.93;;
25125;SDS011;13106;50.808;5.670;2024-01-27T08:39:16;16.33;;;4.70;;
25125;SDS011;13106;50.808;5.670;2024-01-27T08:41:42;12.40;;;4.90;;
25125;SDS011;13106;50.808;5.670;2024-01-27T08:44:08;14.55;;;4.75;;
25125;SDS011;13106;50.808;5.670;2024-01-27T08:46:35;18.58;;;4.95;;
25125;SDS011;13106;50.808;5.670;2024-01-27T08:49:01;15.75;;;4.22;;
25125;SDS011;13106;50.808;5.670;2024-01-27T08:51:27;12.60;;;5.55;;
25125;SDS011;13106;50.808;5.670;2024-01-27T08:53:53;12.75;;;4.72;;
25125;SDS011;13106;50.808;5.670;2024-01-27T08:56:19;15.18;;;5.35;;
25125;SDS011;13106;50.808;5.670;2024-01-27T08:58:45;12.23;;;4.05;;
25125;SDS011;13106;50.808;5.670;2024-01-27T09:01:15;15.15;;;4.60;;
25125;SDS011;13106;50.808;5.670;2024-01-27T09:03:41;16.35;;;6.18;;
25125;SDS011;13106;50.808;5.670;2024-01-27T09:06:08;18.13;;;5.75;;
25125;SDS011;13106;50.808;5.670;2024-01-27T09:08:34;16.00;;;6.47;;
25125;SDS011;13106;50.808;5.670;2024-01-27T09:11:03;13.30;;;6.45;;
25125;SDS011;13106;50.808;5.670;2024-01-27T09:13:29;15.30;;;4.60;;
25125;SDS011;13106;50.808;5.670;2024-01-27T09:15:56;15.35;;;6.78;;
25125;SDS011;13106;50.808;5.670;2024-01-27T09:18:23;12.57;;;4.60;;
25125;SDS011;13106;50.808;5.670;2024-01-27T09:20:50;13.60;;;5.53;;
25125;SDS011;13106;50.808;5.670;2024-01-27T09:23:16;12.75;;;3.75;;
25125;SDS011;13106;50.808;5.670;2024-01-27T09:25:42;13.50;;;4.20;;
25125;SDS011;13106;50.808;5.670;2024-01-27T09:28:08;11.38;;;3.55;;
25125;SDS011;13106;50.808;5.670;2024-01-27T09:30:34;13.05;;;5.80;;
25125;SDS011;13106;50.808;5.670;2024-01-27T09:33:00;11.00;;;3.38;;
25125;SDS011;13106;50.808;5.670;2024-01-27T09:35:26;14.03;;;3.70;;
25125;SDS011;13106;50.808;5.670;2024-01-27T09:37:52;14.70;;;3.70;;
25125;SDS011;13106;50.808;5.670;2024-01-27T09:40:18;14.60;;;4.00;;
25125;SDS011;13106;50.808;5.670;2024-01-27T09:42:53;12.85;;;3.58;;
25125;SDS011;13106;50.808;5.670;2024-01-27T09:45:21;11.15;;;3.38;;
25125;SDS011;13106;50.808;5.670;2024-01-27T09:47:47;13.77;;;3.60;;
25125;SDS011;13106;50.808;5.670;2024-01-27T09:50:14;8.53;;;3.10;;
25125;SDS011;13106;50.808;5.670;2024-01-27T09:52:40;12.63;;;3.53;;
25125;SDS011;13106;50.808;5.670;2024-01-27T09:55:07;13.88;;;3.47;;
25125;SDS011;13106;50.808;5.670;2024-01-27T09:57:33;12.45;;;3.33;;
25125;SDS011;13106;50.808;5.670;2024-01-27T09:59:59;8.70;;;3.20;;
25125;SDS011;13106;50.808;5.670;2024-01-27T10:02:25;11.50;;;3.63;;
25125;SDS011;13106;50.808;5.670;2024-01-27T10:04:53;11.73;;;3.10;;
25125;SDS011;13106;50.808;5.670;2024-01-27T10:07:19;11.63;;;3.27;;
25125;SDS011;13106;50.808;5.670;2024-01-27T10:09:48;15.13;;;3.05;;
25125;SDS011;13106;50.808;5.670;2024-01-27T10:12:14;11.77;;;3.17;;
25125;SDS011;13106;50.808;5.670;2024-01-27T10:14:42;10.55;;;3.20;;
25125;SDS011;13106;50.808;5.670;2024-01-27T10:17:20;11.82;;;3.15;;
25125;SDS011;13106;50.808;5.670;2024-01-27T10:19:47;11.25;;;3.30;;
25125;SDS011;13106;50.808;5.670;2024-01-27T10:22:13;10.23;;;3.30;;
25125;SDS011;13106;50.808;5.670;2024-01-27T10:24:39;10.63;;;3.30;;
25125;SDS011;13106;50.808;5.670;2024-01-27T10:27:05;10.98;;;3.28;;
25125;SDS011;13106;50.808;5.670;2024-01-27T10:29:31;12.80;;;3.72;;
25125;SDS011;13106;50.808;5.670;2024-01-27T10:32:10;10.50;;;3.53;;
25125;SDS011;13106;50.808;5.670;2024-01-27T10:34:36;13.60;;;4.47;;
25125;SDS011;13106;50.808;5.670;2024-01-27T10:37:02;11.52;;;3.85;;
25125;SDS011;13106;50.808;5.670;2024-01-27T10:39:28;11.80;;;4.20;;
25125;SDS011;13106;50.808;5.670;2024-01-27T10:41:54;9.05;;;3.72;;
25125;SDS011;13106;50.808;5.670;2024-01-27T10:44:20;14.43;;;3.90;;
25125;SDS011;13106;50.808;5.670;2024-01-27T10:46:47;8.47;;;3.50;;
25125;SDS011;13106;50.808;5.670;2024-01-27T10:49:14;10.32;;;4.03;;
25125;SDS011;13106;50.808;5.670;2024-01-27T10:51:45;11.60;;;3.80;;
25125;SDS011;13106;50.808;5.670;2024-01-27T10:54:18;10.63;;;3.50;;
25125;SDS011;13106;50.808;5.670;2024-01-27T10:56:48;10.45;;;3.55;;
25125;SDS011;13106;50.808;5.670;2024-01-27T10:59:15;12.05;;;3.70;;
25125;SDS011;13106;50.808;5.670;2024-01-27T11:01:41;8.95;;;3.15;;
25125;SDS011;13106;50.808;5.670;2024-01-27T11:04:08;8.75;;;3.00;;
25125;SDS011;13106;50.808;5.670;2024-01-27T11:06:38;9.73;;;3.03;;
25125;SDS011;13106;50.808;5.670;2024-01-27T11:09:04;9.00;;;2.60;;
25125;SDS011;13106;50.808;5.670;2024-01-27T11:11:33;11.02;;;2.53;;
25125;SDS011;13106;50.808;5.670;2024-01-27T11:13:59;9.75;;;2.90;;
25125;SDS011;13106;50.808;5.670;2024-01-27T11:16:25;8.60;;;2.70;;
25125;SDS011;13106;50.808;5.670;2024-01-27T11:18:53;9.37;;;2.87;;
25125;SDS011;13106;50.808;5.670;2024-01-27T11:21:19;10.52;;;2.60;;
25125;SDS011;13106;50.808;5.670;2024-01-27T11:23:45;9.90;;;2.70;;
25125;SDS011;13106;50.808;5.670;2024-01-27T11:26:18;8.98;;;2.85;;
25125;SDS011;13106;50.808;5.670;2024-01-27T11:28:45;7.78;;;2.50;;
25125;SDS011;13106;50.808;5.670;2024-01-27T11:31:11;10.23;;;2.50;;
25125;SDS011;13106;50.808;5.670;2024-01-27T11:33:43;7.97;;;2.57;;
25125;SDS011;13106;50.808;5.670;2024-01-27T11:36:17;11.20;;;3.60;;
25125;SDS011;13106;50.808;5.670;2024-01-27T11:38:44;6.50;;;2.70;;
25125;SDS011;13106;50.808;5.670;2024-01-27T11:41:10;8.75;;;2.78;;
25125;SDS011;13106;50.808;5.670;2024-01-27T11:43:36;10.82;;;2.53;;
25125;SDS011;13106;50.808;5.670;2024-01-27T11:46:02;9.50;;;2.78;;
25125;SDS011;13106;50.808;5.670;2024-01-27T11:48:28;8.50;;;2.60;;
25125;SDS011;13106;50.808;5.670;2024-01-27T11:51:05;10.88;;;3.30;;
25125;SDS011;13106;50.808;5.670;2024-01-27T11:53:32;7.90;;;2.60;;
25125;SDS011;13106;50.808;5.670;2024-01-27T11:55:58;9.52;;;2.65;;
25125;SDS011;13106;50.808;5.670;2024-01-27T11:58:26;11.68;;;3.00;;
25125;SDS011;13106;50.808;5.670;2024-01-27T12:00:52;9.20;;;2.67;;
25125;SDS011;13106;50.808;5.670;2024-01-27T12:03:18;10.88;;;3.35;;
25125;SDS011;13106;50.808;5.670;2024-01-27T12:05:45;10.20;;;2.33;;
25125;SDS011;13106;50.808;5.670;2024-01-27T12:08:11;10.60;;;2.90;;
25125;SDS011;13106;50.808;5.670;2024-01-27T12:10:37;10.05;;;2.80;;
25125;SDS011;13106;50.808;5.670;2024-01-27T12:13:03;9.18;;;2.78;;
25125;SDS011;13106;50.808;5.670;2024-01-27T12:15:29;9.40;;;2.63;;
25125;SDS011;13106;50.808;5.670;2024-01-27T12:17:55;12.80;;;2.70;;
25125;SDS011;13106;50.808;5.670;2024-01-27T12:20:22;10.68;;;2.70;;
25125;SDS011;13106;50.808;5.670;2024-01-27T12:22:48;8.00;;;2.30;;
25125;SDS011;13106;50.808;5.670;2024-01-27T12:25:17;7.65;;;2.33;;
25125;SDS011;13106;50.808;5.670;2024-01-27T12:27:43;9.68;;;2.60;;
25125;SDS011;13106;50.808;5.670;2024-01-27T12:30:09;6.18;;;2.17;;
25125;SDS011;13106;50.808;5.670;2024-01-27T12:32:36;7.05;;;2.22;;
25125;SDS011;13106;50.808;5.670;2024-01-27T12:35:05;9.10;;;2.60;;
25125;SDS011;13106;50.808;5.670;2024-01-27T12:37:32;7.15;;;2.17;;
25125;SDS011;13106;50.808;5.670;2024-01-27T12:39:58;8.43;;;2.60;;
25125;SDS011;13106;50.808;5.670;2024-01-27T12:42:24;7.50;;;2.55;;
25125;SDS011;13106;50.808;5.670;2024-01-27T12:44:50;7.00;;;2.58;;
25125;SDS011;13106;50.808;5.670;2024-01-27T12:47:16;6.50;;;2.42;;
25125;SDS011;13106;50.808;5.670;2024-01-27T12:49:44;7.70;;;2.58;;
25125;SDS011;13106;50.808;5.670;2024-01-27T12:52:11;8.38;;;2.33;;
25125;SDS011;13106;50.808;5.670;2024-01-27T12:54:37;7.80;;;2.45;;
25125;SDS011;13106;50.808;5.670;2024-01-27T12:57:04;6.70;;;2.50;;
25125;SDS011;13106;50.808;5.670;2024-01-27T12:59:32;9.60;;;2.60;;
25125;SDS011;13106;50.808;5.670;2024-01-27T13:01:58;8.55;;;2.53;;
25125;SDS011;13106;50.808;5.670;2024-01-27T13:04:24;8.20;;;2.65;;
25125;SDS011;13106;50.808;5.670;2024-01-27T13:06:50;6.60;;;3.20;;
25125;SDS011;13106;50.808;5.670;2024-01-27T13:09:16;8.82;;;3.50;;
25125;SDS011;13106;50.808;5.670;2024-01-27T13:11:42;12.27;;;3.50;;
25125;SDS011;13106;50.808;5.670;2024-01-27T13:14:09;9.47;;;2.57;;
25125;SDS011;13106;50.808;5.670;2024-01-27T13:16:37;7.80;;;2.33;;
25125;SDS011;13106;50.808;5.670;2024-01-27T13:19:03;8.40;;;2.63;;
25125;SDS011;13106;50.808;5.670;2024-01-27T13:21:30;9.98;;;3.85;;
25125;SDS011;13106;50.808;5.670;2024-01-27T13:23:56;7.35;;;2.60;;
25125;SDS011;13106;50.808;5.670;2024-01-27T13:26:22;9.63;;;2.53;;
25125;SDS011;13106;50.808;5.670;2024-01-27T13:28:48;10.27;;;2.90;;
25125;SDS011;13106;50.808;5.670;2024-01-27T13:31:14;10.17;;;2.87;;
25125;SDS011;13106;50.808;5.670;2024-01-27T13:33:41;7.40;;;2.10;;
25125;SDS011;13106;50.808;5.670;2024-01-27T13:36:07;11.90;;;2.75;;
25125;SDS011;13106;50.808;5.670;2024-01-27T13:38:33;9.30;;;2.80;;
25125;SDS011;13106;50.808;5.670;2024-01-27T13:41:00;8.18;;;2.67;;
25125;SDS011;13106;50.808;5.670;2024-01-27T13:43:26;7.45;;;2.22;;
25125;SDS011;13106;50.808;5.670;2024-01-27T13:45:52;7.13;;;2.28;;
25125;SDS011;13106;50.808;5.670;2024-01-27T13:48:20;10.25;;;3.70;;
25125;SDS011;13106;50.808;5.670;2024-01-27T13:50:46;10.67;;;3.20;;
25125;SDS011;13106;50.808;5.670;2024-01-27T13:53:12;8.60;;;3.73;;
25125;SDS011;13106;50.808;5.670;2024-01-27T13:55:38;7.65;;;2.00;;
25125;SDS011;13106;50.808;5.670;2024-01-27T13:58:05;10.03;;;2.50;;
25125;SDS011;13106;50.808;5.670;2024-01-27T14:00:31;11.13;;;2.28;;
25125;SDS011;13106;50.808;5.670;2024-01-27T14:02:59;7.85;;;2.42;;
25125;SDS011;13106;50.808;5.670;2024-01-27T14:05:25;7.40;;;2.33;;
25125;SDS011;13106;50.808;5.670;2024-01-27T14:07:51;9.15;;;3.13;;
25125;SDS011;13106;50.808;5.670;2024-01-27T14:10:17;10.60;;;2.70;;
25125;SDS011;13106;50.808;5.670;2024-01-27T14:12:43;10.32;;;2.90;;
25125;SDS011;13106;50.808;5.670;2024-01-27T14:15:09;7.35;;;2.15;;
25125;SDS011;13106;50.808;5.670;2024-01-27T14:17:35;9.98;;;3.90;;
25125;SDS011;13106;50.808;5.670;2024-01-27T14:20:02;7.22;;;2.38;;
25125;SDS011;13106;50.808;5.670;2024-01-27T14:22:29;7.60;;;2.20;;
25125;SDS011;13106;50.808;5.670;2024-01-27T14:24:55;11.70;;;2.67;;
25125;SDS011;13106;50.808;5.670;2024-01-27T14:27:21;8.75;;;2.60;;
25125;SDS011;13106;50.808;5.670;2024-01-27T14:29:54;8.70;;;2.50;;
25125;SDS011;13106;50.808;5.670;2024-01-27T14:32:21;10.07;;;2.70;;